Time;durP1;ratioP1;P1;durP2;ratioP2;P2;SDS_P1;SDS_P2;PMS_P1;PMS_P2;Temp;Humidity;BMP_temperature;BMP_pressure;BME280_temperature;BME280_humidity;BME280_pressure;Samples;Min_cycle;Max_cycle;Signal;HPM_P1;HPM_P2
2022/11/26 00:01:38;;;;;;;1634.40;769.03;;;10.30;99.90;;;;;;5112227;28;20173;-78
2022/11/26 00:04:05;;;;;;;1999.90;403.05;;;10.20;99.90;;;;;;5113047;28;20470;-78
2022/11/26 00:06:34;;;;;;;1772.15;248.98;;;9.90;99.90;;;;;;5112992;28;20484;-77
2022/11/26 00:09:01;;;;;;;1999.90;999.90;;;10.00;99.90;;;;;;5113249;28;20082;-77
2022/11/26 00:11:27;;;;;;;1999.90;999.90;;;10.20;99.90;;;;;;5113606;28;20069;-76
2022/11/26 00:13:53;;;;;;;1850.10;600.38;;;10.30;99.90;;;;;;5113184;28;20128;-77
2022/11/26 00:16:18;;;;;;;1973.57;434.25;;;10.10;1.00;;;;;;5113428;28;20592;-77
2022/11/26 00:18:44;;;;;;;1556.90;369.10;;;11.80;1.00;;;;;;5095644;28;20119;-78
2022/11/26 00:21:22;;;;;;;1999.90;999.90;;;10.40;1.00;;;;;;5095441;28;20057;-78
2022/11/26 00:23:48;;;;;;;1899.30;617.65;;;10.20;1.00;;;;;;5113479;28;20078;-80
2022/11/26 00:26:19;;;;;;;1999.90;999.90;;;10.50;1.00;;;;;;5111956;28;20454;-78
2022/11/26 00:29:07;;;;;;;1744.78;404.30;;;10.40;99.90;;;;;;5113595;28;20047;-78
2022/11/26 00:31:33;;;;;;;1999.90;999.90;;;9.90;1.00;;;;;;5112734;28;20051;-78
2022/11/26 00:33:59;;;;;;;1999.90;999.90;;;10.30;1.00;;;;;;5095164;28;20057;-78
2022/11/26 00:36:31;;;;;;;1802.88;788.58;;;10.30;1.00;;;;;;5112145;28;20043;-80
2022/11/26 00:39:03;;;;;;;1999.90;999.90;;;11.10;1.00;;;;;;5113031;28;20040;-82
2022/11/26 00:41:37;;;;;;;1999.90;999.90;;;10.00;1.00;;;;;;5112522;28;20048;-78
2022/11/26 00:44:03;;;;;;;1999.90;999.90;;;7.90;1.00;;;;;;5113082;28;20047;-78
2022/11/26 00:46:29;;;;;;;1999.90;999.90;;;10.20;99.90;;;;;;5113235;28;20032;-78
2022/11/26 00:48:54;;;;;;;1999.90;999.90;;;9.80;1.00;;;;;;5112850;28;20131;-78
2022/11/26 00:51:23;;;;;;;1999.90;999.90;;;9.80;1.00;;;;;;5113044;28;20126;-78
2022/11/26 00:53:52;;;;;;;1999.90;999.90;;;9.70;1.00;;;;;;5113046;28;20047;-78
2022/11/26 00:56:20;;;;;;;1999.90;999.90;;;9.80;5.40;;;;;;5094322;28;20515;-78
2022/11/26 00:58:47;;;;;;;1999.90;999.90;;;10.00;1.60;;;;;;5094872;28;20091;-78
2022/11/26 01:01:17;;;;;;;1999.90;999.90;;;12.30;65.80;;;;;;5112964;28;20093;-78
2022/11/26 01:03:43;;;;;;;1999.90;999.90;;;10.10;1.00;;;;;;5094656;28;20059;-78
2022/11/26 01:06:30;;;;;;;1999.90;999.90;;;10.40;36.60;;;;;;5111984;28;20039;-79
2022/11/26 01:08:56;;;;;;;1999.90;999.90;;;10.10;46.40;;;;;;5094659;28;20415;-77
2022/11/26 01:11:23;;;;;;;1999.90;999.90;;;9.60;77.80;;;;;;5112545;28;20060;-77
2022/11/26 01:13:51;;;;;;;1999.90;999.90;;;9.70;80.00;;;;;;5093683;28;20188;-77
2022/11/26 01:16:24;;;;;;;1999.90;999.90;;;10.00;66.20;;;;;;5093259;28;20044;-77
2022/11/26 01:18:51;;;;;;;1999.90;498.00;;;9.20;1.00;;;;;;5111375;28;20056;-78
2022/11/26 01:21:18;;;;;;;1999.90;999.90;;;9.70;72.40;;;;;;5112756;28;20047;-77
2022/11/26 01:23:44;;;;;;;1999.90;999.90;;;10.10;1.00;;;;;;5112012;28;20047;-79
2022/11/26 01:26:20;;;;;;;1633.75;766.90;;;11.80;91.90;;;;;;5094246;28;20552;-78
2022/11/26 01:28:46;;;;;;;1999.90;999.90;;;10.20;99.90;;;;;;5094203;28;20043;-78
2022/11/26 01:31:23;;;;;;;1947.20;431.13;;;10.90;99.90;;;;;;5111972;28;20054;-78
2022/11/26 01:33:49;;;;;;;1119.72;517.35;;;11.10;99.90;;;;;;5111634;28;20408;-78
2022/11/26 01:36:28;;;;;;;1999.90;999.90;;;10.50;99.90;;;;;;5112148;28;20040;-78
2022/11/26 01:38:57;;;;;;;1999.90;999.90;;;11.10;99.90;;;;;;5111790;28;20051;-79
2022/11/26 01:41:51;;;;;;;1999.90;999.90;;;10.00;99.90;;;;;;5111809;28;20047;-79
2022/11/26 01:44:26;;;;;;;1999.90;999.90;;;9.50;99.90;;;;;;5111890;28;20545;-78
2022/11/26 01:46:53;;;;;;;1999.90;999.90;;;9.40;99.90;;;;;;5112700;28;20075;-78
2022/11/26 01:49:33;;;;;;;1161.60;519.70;;;10.00;99.90;;;;;;5111466;28;20512;-80
2022/11/26 01:52:22;;;;;;;1910.88;434.33;;;9.90;37.90;;;;;;5112271;28;20043;-78
2022/11/26 01:54:48;;;;;;;1623.93;764.63;;;9.70;99.90;;;;;;5098260;28;20047;-78
2022/11/26 01:57:19;;;;;;;1999.90;999.90;;;9.70;99.90;;;;;;5114539;28;20039;-77
2022/11/26 01:59:51;;;;;;;1999.90;999.90;;;9.50;99.90;;;;;;5116436;28;20051;-79
2022/11/26 02:02:18;;;;;;;1999.90;999.90;;;9.90;99.90;;;;;;5115668;28;20048;-78
2022/11/26 02:05:38;;;;;;;1999.90;999.90;;;9.60;99.90;;;;;;5116459;28;20055;-78
2022/11/26 02:08:05;;;;;;;1999.90;999.90;;;9.70;99.90;;;;;;5036166;28;20092;-78
2022/11/26 02:10:31;;;;;;;1210.32;524.70;;;9.90;99.90;;;;;;5087828;28;20051;-78
2022/11/26 02:12:57;;;;;;;1999.90;999.90;;;9.30;99.90;;;;;;5115720;28;20472;-78
2022/11/26 02:15:28;;;;;;;1999.90;999.90;;;9.70;91.10;;;;;;5097483;28;20055;-79
2022/11/26 02:18:03;;;;;;;1999.90;999.90;;;9.80;99.90;;;;;;5115790;28;20173;-79
2022/11/26 02:20:44;;;;;;;1999.90;999.90;;;9.20;99.90;;;;;;5115163;28;20428;-80
2022/11/26 02:23:39;;;;;;;1999.90;999.90;;;9.50;99.90;;;;;;5115414;28;20050;-82
2022/11/26 02:26:11;;;;;;;1999.90;999.90;;;9.40;99.90;;;;;;5115328;28;20054;-79
2022/11/26 02:29:06;;;;;;;1999.90;999.90;;;9.20;99.90;;;;;;5115646;28;20533;-78
2022/11/26 02:31:47;;;;;;;1999.90;999.90;;;9.50;99.90;;;;;;5114709;28;20047;-78
2022/11/26 02:34:52;;;;;;;1999.90;999.90;;;8.60;99.90;;;;;;5114639;28;20051;-78
2022/11/26 02:37:24;;;;;;;1999.90;999.90;;;9.70;99.90;;;;;;5096193;28;20048;-78
2022/11/26 02:39:50;;;;;;;1999.90;999.90;;;10.40;99.90;;;;;;5114948;28;20040;-77
2022/11/26 02:42:25;;;;;;;1999.90;999.90;;;8.60;99.90;;;;;;5113338;28;20086;-78
2022/11/26 02:44:55;;;;;;;1999.90;999.90;;;10.20;99.90;;;;;;5115006;28;20078;-78
2022/11/26 02:47:25;;;;;;;1999.90;999.90;;;9.40;99.90;;;;;;5113997;28;20043;-77
2022/11/26 02:49:52;;;;;;;1999.90;999.90;;;9.30;16.70;;;;;;5114694;28;20135;-78
2022/11/26 02:52:20;;;;;;;1999.90;999.90;;;10.60;99.90;;;;;;5113468;28;20380;-77
2022/11/26 02:54:47;;;;;;;1999.90;843.58;;;9.60;99.90;;;;;;5115098;28;20453;-77
2022/11/26 02:57:17;;;;;;;1999.90;999.90;;;9.20;99.90;;;;;;5096510;28;20043;-78
2022/11/26 02:59:44;;;;;;;1999.90;999.90;;;9.50;99.90;;;;;;5115440;28;20086;-79
2022/11/26 03:02:14;;;;;;;1999.90;999.90;;;9.50;99.90;;;;;;5114689;28;20043;-78
2022/11/26 03:04:44;;;;;;;1999.90;999.90;;;11.10;99.90;;;;;;5113832;28;20055;-77
2022/11/26 03:07:13;;;;;;;1999.90;999.90;;;10.90;99.90;;;;;;5115100;28;20107;-77
2022/11/26 03:09:50;;;;;;;1574.80;758.75;;;9.30;99.90;;;;;;5113958;28;20484;-77
2022/11/26 03:12:16;;;;;;;1999.90;999.90;;;9.70;99.90;;;;;;5095916;28;20511;-80
2022/11/26 03:14:42;;;;;;;1999.90;999.90;;;9.60;99.90;;;;;;5114912;28;20044;-77
2022/11/26 03:17:07;;;;;;;1999.90;999.90;;;9.30;99.90;;;;;;5114669;28;20380;-77
2022/11/26 03:19:33;;;;;;;1999.90;999.90;;;9.30;99.90;;;;;;5096316;28;20043;-78
2022/11/26 03:21:59;;;;;;;1999.90;999.90;;;10.50;99.90;;;;;;5114479;28;20051;-78
2022/11/26 03:24:24;;;;;;;1999.90;999.90;;;9.30;99.90;;;;;;5114951;28;20083;-78
2022/11/26 03:26:50;;;;;;;1999.90;999.90;;;9.80;99.90;;;;;;5114980;28;20036;-78
2022/11/26 03:29:16;;;;;;;1999.90;999.90;;;10.20;99.90;;;;;;5113609;28;20162;-78
2022/11/26 03:31:41;;;;;;;1999.90;999.90;;;10.50;99.90;;;;;;5113120;28;20048;-81
2022/11/26 03:34:07;;;;;;;1850.03;607.92;;;9.20;99.90;;;;;;5114462;28;20051;-78
2022/11/26 03:36:33;;;;;;;1999.90;999.90;;;9.60;99.90;;;;;;5096243;28;20079;-77
2022/11/26 03:38:58;;;;;;;1999.90;999.90;;;9.30;99.90;;;;;;5079327;28;20051;-77
2022/11/26 03:41:24;;;;;;;1999.90;999.90;;;10.50;99.90;;;;;;5114288;28;20094;-77
2022/11/26 03:43:49;;;;;;;1999.90;999.90;;;9.30;99.90;;;;;;5114320;28;20055;-77
2022/11/26 03:46:15;;;;;;;1999.90;999.90;;;10.20;99.90;;;;;;5114529;28;20039;-76
2022/11/26 03:48:41;;;;;;;1999.90;999.90;;;10.50;99.90;;;;;;5113782;28;20548;-78
2022/11/26 03:51:07;;;;;;;1999.90;999.90;;;9.80;99.90;;;;;;5113294;28;20047;-76
2022/11/26 03:53:32;;;;;;;1963.05;626.13;;;9.20;99.90;;;;;;5113301;28;20055;-77
2022/11/26 03:55:58;;;;;;;1999.90;999.90;;;9.30;99.90;;;;;;5112596;28;20032;-77
2022/11/26 03:58:23;;;;;;;1999.90;999.90;;;10.20;99.90;;;;;;5112470;28;20092;-78
2022/11/26 04:00:49;;;;;;;1999.90;999.90;;;9.60;99.90;;;;;;5114188;28;20048;-78
2022/11/26 04:03:15;;;;;;;1999.90;999.90;;;11.40;99.90;;;;;;5113451;28;20480;-78
2022/11/26 04:05:40;;;;;;;1999.90;999.90;;;9.80;99.90;;;;;;5113495;28;20043;-78
2022/11/26 04:08:06;;;;;;;1999.90;999.90;;;9.50;99.90;;;;;;5095945;28;20039;-77
2022/11/26 04:10:32;;;;;;;1999.90;999.90;;;9.10;99.90;;;;;;5095460;28;20115;-77
2022/11/26 04:12:58;;;;;;;1999.90;999.90;;;9.40;99.90;;;;;;5112164;28;20066;-79
2022/11/26 04:15:24;;;;;;;1999.90;999.90;;;9.80;99.90;;;;;;5113639;28;20541;-79
2022/11/26 04:17:49;;;;;;;1999.90;999.90;;;10.70;99.90;;;;;;5094949;28;20552;-79
2022/11/26 04:20:15;;;;;;;1999.90;999.90;;;9.70;99.90;;;;;;5113493;28;20131;-79
2022/11/26 04:22:41;;;;;;;1999.90;999.90;;;9.30;99.90;;;;;;5112969;28;20044;-79
2022/11/26 04:25:07;;;;;;;1999.90;999.90;;;9.30;99.90;;;;;;5113207;28;20044;-79
2022/11/26 04:27:33;;;;;;;1599.53;762.25;;;9.80;99.90;;;;;;5095422;28;20048;-78
2022/11/26 04:29:58;;;;;;;1999.90;999.90;;;9.30;99.90;;;;;;5095693;28;20127;-79
2022/11/26 04:32:24;;;;;;;1999.90;999.90;;;9.30;99.90;;;;;;5112235;28;20043;-79
2022/11/26 04:34:50;;;;;;;1999.90;624.67;;;;;;;;;;5113099;28;20096;-78
2022/11/26 04:37:16;;;;;;;1999.90;999.90;;;9.70;99.90;;;;;;5095192;28;20463;-78
2022/11/26 04:39:41;;;;;;;1238.57;141.05;;;10.50;99.90;;;;;;5112086;28;20039;-78
2022/11/26 04:42:07;;;;;;;1999.90;999.90;;;9.60;99.90;;;;;;5113500;28;20442;-79
2022/11/26 04:44:33;;;;;;;1999.90;999.90;;;9.60;99.90;;;;;;5112806;28;20442;-78
2022/11/26 04:46:58;;;;;;;1999.90;999.90;;;9.80;99.90;;;;;;5113316;28;20096;-78
2022/11/26 04:49:24;;;;;;;1999.90;999.90;;;9.80;99.90;;;;;;5095330;28;20495;-78
2022/11/26 04:51:50;;;;;;;1999.90;999.90;;;9.50;99.90;;;;;;5112815;28;20396;-78
2022/11/26 04:54:15;;;;;;;1999.90;999.90;;;9.50;99.90;;;;;;5113005;28;20071;-78
2022/11/26 04:56:41;;;;;;;1999.90;999.90;;;9.20;99.90;;;;;;5111416;28;20051;-78
2022/11/26 04:59:07;;;;;;;1999.90;999.90;;;9.60;99.90;;;;;;5111948;28;20036;-78
2022/11/26 05:01:32;;;;;;;1999.90;999.90;;;9.60;99.90;;;;;;5094803;28;20043;-79
2022/11/26 05:03:58;;;;;;;1742.35;584.55;;;9.80;99.90;;;;;;5078037;28;20035;-79
2022/11/26 05:06:24;;;;;;;1999.90;999.90;;;9.40;99.90;;;;;;5112478;28;20047;-79
2022/11/26 05:08:49;;;;;;;1132.85;517.00;;;9.60;99.90;;;;;;5112477;28;20050;-79
2022/11/26 05:11:15;;;;;;;1999.90;999.90;;;10.30;99.90;;;;;;5113197;28;20514;-79
2022/11/26 05:13:41;;;;;;;1999.90;999.90;;;9.90;99.90;;;;;;5111876;28;20064;-79
2022/11/26 05:16:07;;;;;;;1999.90;999.90;;;9.40;99.90;;;;;;5112928;28;20077;-79
2022/11/26 05:18:33;;;;;;;1999.90;999.90;;;9.90;99.90;;;;;;5094133;28;20071;-78
2022/11/26 05:20:58;;;;;;;308.35;47.05;;;9.40;99.90;;;;;;5110937;28;20047;-78
2022/11/26 05:23:24;;;;;;;1999.90;999.90;;;9.90;99.90;;;;;;5111198;28;20048;-79
2022/11/26 05:25:50;;;;;;;1999.90;999.90;;;9.60;99.90;;;;;;5112599;28;20061;-78
2022/11/26 05:28:16;;;;;;;1999.90;999.90;;;9.40;99.90;;;;;;5113769;28;20100;-78
2022/11/26 05:30:41;;;;;;;1999.90;999.90;;;9.80;99.90;;;;;;5098409;28;20130;-77
2022/11/26 05:33:07;;;;;;;1999.90;999.90;;;10.40;99.90;;;;;;5116892;28;20062;-77
2022/11/26 05:35:33;;;;;;;1150.93;517.17;;;9.40;99.90;;;;;;5097900;28;20036;-78
2022/11/26 05:37:59;;;;;;;1999.90;999.90;;;9.70;99.90;;;;;;5116925;28;20040;-78
2022/11/26 05:40:24;;;;;;;1999.90;999.90;;;9.70;99.90;;;;;;5115720;28;20066;-79
2022/11/26 05:42:50;;;;;;;1999.90;999.90;;;9.40;99.90;;;;;;5098338;28;20044;-77
2022/11/26 05:45:15;;;;;;;1999.90;999.90;;;9.40;99.90;;;;;;5115647;28;20044;-77
2022/11/26 05:47:42;;;;;;;1999.90;999.90;;;11.40;99.90;;;;;;5116180;28;20039;-77
2022/11/26 05:50:08;;;;;;;1592.43;761.63;;;9.70;99.90;;;;;;5116725;28;20048;-77
2022/11/26 05:52:34;;;;;;;1999.90;999.90;;;9.40;99.90;;;;;;5098203;28;20087;-78
2022/11/26 05:55:00;;;;;;;1999.90;999.90;;;9.40;99.90;;;;;;5116841;28;20079;-78
2022/11/26 05:57:25;;;;;;;1999.90;999.90;;;9.90;99.90;;;;;;5116256;28;20031;-77
2022/11/26 05:59:51;;;;;;;1999.90;999.90;;;9.60;99.90;;;;;;5098338;28;20040;-78
2022/11/26 06:02:17;;;;;;;1999.90;999.90;;;9.70;99.90;;;;;;5116615;28;20051;-78
2022/11/26 06:04:42;;;;;;;1999.90;999.90;;;8.40;99.90;;;;;;5115998;28;20040;-77
2022/11/26 06:07:09;;;;;;;1999.90;999.90;;;10.10;99.90;;;;;;5097838;28;20047;-77
2022/11/26 06:09:35;;;;;;;1999.90;999.90;;;11.10;99.90;;;;;;5116367;28;20093;-78
2022/11/26 06:12:01;;;;;;;1999.90;999.90;;;9.50;99.90;;;;;;5116353;28;20050;-78
2022/11/26 06:14:27;;;;;;;1999.90;999.90;;;10.00;99.90;;;;;;5115782;28;20112;-78
2022/11/26 06:16:53;;;;;;;1999.90;999.90;;;11.80;99.90;;;;;;5115178;28;20059;-78
2022/11/26 06:19:19;;;;;;;1999.90;999.90;;;10.10;99.90;;;;;;5098023;28;20480;-77
2022/11/26 06:21:44;;;;;;;1999.90;999.90;;;9.70;99.90;;;;;;5115755;28;20051;-79
2022/11/26 06:24:11;;;;;;;1943.72;442.50;;;9.40;99.90;;;;;;5114865;28;20438;-78
2022/11/26 06:26:36;;;;;;;1999.90;999.90;;;11.00;99.90;;;;;;5116135;28;20043;-78
2022/11/26 06:29:02;;;;;;;1999.90;999.90;;;9.80;99.90;;;;;;5115449;28;20048;-78
2022/11/26 06:31:28;;;;;;;1999.90;999.90;;;10.20;99.90;;;;;;5114856;28;20047;-77
2022/11/26 06:33:55;;;;;;;1999.90;999.90;;;9.60;99.90;;;;;;5114100;28;20052;-77
2022/11/26 06:36:23;;;;;;;1999.90;999.90;;;11.60;99.90;;;;;;5115205;28;20611;-79
2022/11/26 06:38:49;;;;;;;1999.90;999.90;;;11.30;99.90;;;;;;5096749;28;20066;-78
2022/11/26 06:41:15;;;;;;;1999.90;999.90;;;9.90;99.90;;;;;;5097395;28;20039;-78
2022/11/26 06:43:41;;;;;;;1999.90;999.90;;;10.10;99.90;;;;;;5114718;28;20050;-78
2022/11/26 06:46:08;;;;;;;1999.90;999.90;;;10.00;99.90;;;;;;5114519;28;20093;-78
2022/11/26 06:48:35;;;;;;;1999.90;824.00;;;10.00;99.90;;;;;;5079464;28;20055;-77
2022/11/26 06:51:06;;;;;;;1999.90;999.90;;;9.80;99.90;;;;;;5097159;28;20134;-78
2022/11/26 06:53:32;;;;;;;1999.90;999.90;;;9.50;99.90;;;;;;5097350;28;20043;-77
2022/11/26 06:56:06;;;;;;;1999.90;999.90;;;9.50;99.90;;;;;;5114793;28;20385;-78
2022/11/26 06:58:32;;;;;;;1999.90;999.90;;;9.80;99.90;;;;;;5097031;28;20381;-78
2022/11/26 07:00:58;;;;;;;1999.90;999.90;;;9.60;99.90;;;;;;5096015;28;20090;-78
2022/11/26 07:03:25;;;;;;;1999.90;999.90;;;10.20;99.90;;;;;;5114481;28;20387;-78
2022/11/26 07:05:51;;;;;;;1999.90;999.90;;;9.90;99.90;;;;;;5114079;28;20043;-77
2022/11/26 07:08:17;;;;;;;1999.90;999.90;;;9.50;99.90;;;;;;5096863;28;20441;-77
2022/11/26 07:10:43;;;;;;;1999.90;999.90;;;9.60;99.90;;;;;;5113466;28;20048;-81
2022/11/26 07:13:09;;;;;;;1999.90;999.90;;;10.00;99.90;;;;;;5096118;28;20079;-78
2022/11/26 07:15:35;;;;;;;1999.90;999.90;;;9.80;99.90;;;;;;5113779;28;20091;-78
2022/11/26 07:18:01;;;;;;;1999.90;999.90;;;10.00;99.90;;;;;;5114545;28;20050;-78
2022/11/26 07:20:27;;;;;;;1448.35;552.08;;;9.70;99.90;;;;;;5096498;28;20096;-77
2022/11/26 07:22:53;;;;;;;1331.55;540.00;;;;;;;;;;5114009;28;20047;-78
2022/11/26 07:25:19;;;;;;;1999.90;999.90;;;9.60;99.90;;;;;;5114106;28;20079;-78
2022/11/26 07:27:45;;;;;;;1999.90;999.90;;;10.80;99.90;;;;;;5096172;28;20463;-80
2022/11/26 07:30:11;;;;;;;1999.90;999.90;;;9.60;99.90;;;;;;5096719;28;20481;-79
2022/11/26 07:32:37;;;;;;;1999.90;999.90;;;10.10;99.90;;;;;;5096162;28;20048;-78
2022/11/26 07:35:04;;;;;;;1999.90;999.90;;;9.80;99.90;;;;;;5113971;28;20047;-78
2022/11/26 07:37:31;;;;;;;1999.90;999.90;;;10.00;99.90;;;;;;5095909;28;20127;-78
2022/11/26 07:39:57;;;;;;;1999.90;999.90;;;9.80;99.90;;;;;;5079290;28;20088;-78
2022/11/26 07:42:23;;;;;;;1999.90;999.90;;;10.00;99.90;;;;;;5112423;28;20047;-80
2022/11/26 07:44:49;;;;;;;1573.40;759.00;;;10.00;99.90;;;;;;5114091;28;20126;-79
2022/11/26 07:47:15;;;;;;;1999.90;999.90;;;10.10;99.90;;;;;;5094980;28;20059;-78
2022/11/26 07:49:40;;;;;;;1999.90;999.90;;;10.00;99.90;;;;;;5095584;28;20092;-78
2022/11/26 07:52:06;;;;;;;1999.90;999.90;;;9.70;99.90;;;;;;5094852;28;20052;-78
2022/11/26 07:54:32;;;;;;;1999.90;999.90;;;9.80;99.90;;;;;;5112336;28;20181;-78
2022/11/26 07:56:58;;;;;;;1999.90;999.90;;;9.70;99.90;;;;;;5095320;28;20040;-79
2022/11/26 07:59:23;;;;;;;1999.90;999.90;;;11.60;99.90;;;;;;5095894;28;20127;-78
2022/11/26 08:01:49;;;;;;;1999.90;999.90;;;11.00;99.90;;;;;;5078116;28;20047;-78
2022/11/26 08:04:15;;;;;;;1999.90;999.90;;;11.20;99.90;;;;;;5095270;28;20126;-77
2022/11/26 08:06:40;;;;;;;1999.90;999.90;;;10.90;99.90;;;;;;5095176;28;20089;-77
2022/11/26 08:09:06;;;;;;;1999.90;999.90;;;10.40;99.90;;;;;;5095411;28;20048;-78
2022/11/26 08:11:33;;;;;;;1968.70;611.85;;;10.30;99.90;;;;;;5111936;28;20079;-76
2022/11/26 08:14:05;;;;;;;1878.95;602.20;;;10.50;99.90;;;;;;5113227;28;20082;-77
2022/11/26 08:16:32;;;;;;;1355.00;542.83;;;10.40;99.90;;;;;;5113802;28;20052;-77
2022/11/26 08:19:05;;;;;;;1999.90;999.90;;;10.60;99.90;;;;;;5112416;28;20051;-77
2022/11/26 08:21:30;;;;;;;1999.90;999.90;;;10.70;99.90;;;;;;5094527;28;20043;-78
2022/11/26 08:23:58;;;;;;;1999.90;999.90;;;10.30;99.90;;;;;;5112825;28;20040;-78
2022/11/26 08:26:24;;;;;;;1715.45;585.42;;;11.50;99.90;;;;;;5111691;28;20047;-78
2022/11/26 08:28:51;;;;;;;1999.90;614.50;;;11.20;99.90;;;;;;5094134;28;20054;-79
2022/11/26 08:31:16;;;;;;;685.72;91.93;;;11.10;99.90;;;;;;5095009;28;20413;-78
2022/11/26 08:33:43;;;;;;;1999.90;999.90;;;10.70;99.90;;;;;;5093833;28;20048;-78
2022/11/26 08:36:10;;;;;;;1999.90;999.90;;;11.70;99.90;;;;;;5113096;28;20046;-78
2022/11/26 08:38:36;;;;;;;1999.90;999.90;;;10.40;99.90;;;;;;5094676;28;20047;-78
2022/11/26 08:41:05;;;;;;;1999.90;999.90;;;10.70;99.90;;;;;;5094817;28;20054;-78
2022/11/26 08:43:32;;;;;;;1999.90;999.90;;;11.00;99.90;;;;;;5113470;28;20039;-79
2022/11/26 08:45:59;;;;;;;1999.90;999.90;;;11.90;99.90;;;;;;5111674;28;20058;-79
2022/11/26 08:48:27;;;;;;;1999.90;999.90;;;11.10;99.90;;;;;;5112787;28;20052;-79
2022/11/26 08:51:00;;;;;;;;;;;11.20;99.90;;;;;;5095443;28;20134;-82
2022/11/26 08:53:30;;;;;;;1996.20;613.00;;;11.20;99.90;;;;;;5112437;28;19968;-79
2022/11/26 08:56:07;;;;;;;1396.30;553.60;;;12.50;99.90;;;;;;5112935;28;20392;-79
2022/11/26 08:58:35;;;;;;;1999.90;999.90;;;10.80;99.90;;;;;;5094538;28;20043;-79
2022/11/26 09:01:08;;;;;;;1999.90;806.15;;;11.30;99.90;;;;;;5076218;28;20122;-78
2022/11/26 09:03:34;;;;;;;1999.90;999.90;;;11.40;99.90;;;;;;5111798;28;20051;-78
2022/11/26 09:06:01;;;;;;;1999.90;999.90;;;11.20;99.90;;;;;;5112403;28;20123;-80
2022/11/26 09:08:27;;;;;;;1765.80;597.65;;;11.20;99.90;;;;;;5077822;28;20150;-79
2022/11/26 09:10:54;;;;;;;1999.90;999.90;;;10.90;99.90;;;;;;5113074;28;20539;-78
2022/11/26 09:13:20;;;;;;;1670.85;585.10;;;11.10;99.90;;;;;;5094813;28;20065;-79
2022/11/26 09:15:48;;;;;;;1579.90;761.55;;;11.40;99.90;;;;;;5112613;28;20471;-79
2022/11/26 09:18:14;;;;;;;1707.70;779.40;;;11.20;99.90;;;;;;5112157;28;20055;-81
2022/11/26 09:20:39;;;;;;;1932.05;803.03;;;11.60;99.90;;;;;;5093871;28;20563;-79
2022/11/26 09:23:05;;;;;;;1717.43;212.88;;;11.60;99.90;;;;;;5094066;28;20039;-78
2022/11/26 09:25:31;;;;;;;1714.20;219.93;;;11.30;99.90;;;;;;5094842;28;20049;-79
2022/11/26 09:27:57;;;;;;;1870.03;603.70;;;;;;;;;;5110733;28;20044;-81
2022/11/26 09:30:22;;;;;;;1999.90;999.90;;;11.30;99.90;;;;;;5094718;28;20131;-78
2022/11/26 09:32:48;;;;;;;1999.90;999.90;;;11.20;99.90;;;;;;5112467;28;20482;-78
2022/11/26 09:35:14;;;;;;;1286.55;352.35;;;11.70;99.90;;;;;;5112187;28;20480;-77
2022/11/26 09:37:39;;;;;;;1999.90;999.90;;;11.80;99.90;;;;;;5093622;28;20043;-78
2022/11/26 09:40:06;;;;;;;1999.90;999.90;;;11.80;99.90;;;;;;5112195;28;20074;-79
2022/11/26 09:43:06;;;;;;;1722.53;782.30;;;11.90;99.90;;;;;;5093732;28;20391;-79
2022/11/26 09:45:44;;;;;;;;;;;11.70;99.90;;;;;;5083874;28;20052;-79
2022/11/26 09:48:21;;;;;;;1938.45;803.53;;;12.00;99.90;;;;;;5111661;28;19965;-81
2022/11/26 09:50:50;;;;;;;1999.90;999.90;;;12.90;99.90;;;;;;5112569;28;20043;-78
2022/11/26 09:53:30;;;;;;;840.72;314.75;;;11.70;99.90;;;;;;5092762;28;20475;-80
2022/11/26 09:55:56;;;;;;;1999.90;999.90;;;11.60;99.90;;;;;;5094611;28;20384;-79
2022/11/26 09:58:42;;;;;;;1999.90;999.90;;;12.20;99.90;;;;;;5110202;28;20116;-80
2022/11/26 10:01:13;;;;;;;1999.90;999.90;;;12.10;99.90;;;;;;5112081;28;20127;-79
2022/11/26 10:03:41;;;;;;;1254.60;543.60;;;12.00;99.90;;;;;;5111752;28;20048;-81
2022/11/26 10:06:24;;;;;;;1322.32;167.15;;;12.20;99.90;;;;;;5094081;28;20081;-82
2022/11/26 10:09:11;;;;;;;1999.90;999.90;;;11.70;99.90;;;;;;5093740;28;20047;-81
2022/11/26 10:12:05;;;;;;;1999.90;999.90;;;11.90;99.90;;;;;;5111474;28;20047;-81
2022/11/26 10:15:15;;;;;;;1999.90;999.90;;;12.00;99.90;;;;;;5113589;28;20070;-80
2022/11/26 10:17:59;;;;;;;1999.90;999.90;;;12.00;99.90;;;;;;5052596;28;20049;-80
2022/11/26 10:21:01;;;;;;;1999.90;999.90;;;12.50;99.90;;;;;;5034365;28;20056;-80
2022/11/26 10:23:39;;;;;;;1999.90;999.90;;;12.20;99.90;;;;;;5106792;28;20101;-79
2022/11/26 10:26:26;;;;;;;1999.90;999.90;;;12.40;99.90;;;;;;5097758;28;20072;-80
2022/11/26 10:29:15;;;;;;;1999.90;999.90;;;12.20;99.90;;;;;;5113755;28;20296;-79
2022/11/26 10:31:45;;;;;;;1999.90;999.90;;;12.10;99.90;;;;;;5097112;28;20484;-79
2022/11/26 10:34:17;;;;;;;1675.40;780.35;;;11.40;99.90;;;;;;5114747;28;20051;-79
2022/11/26 10:36:44;;;;;;;1999.90;999.90;;;12.30;99.90;;;;;;5115365;28;20130;-79
2022/11/26 10:39:16;;;;;;;1999.90;999.90;;;12.50;99.90;;;;;;5096401;28;20051;-78
2022/11/26 10:41:42;;;;;;;1999.90;999.90;;;12.60;99.90;;;;;;5113838;28;20047;-80
2022/11/26 10:44:50;;;;;;;1999.90;999.90;;;12.50;99.90;;;;;;5114779;28;20456;-78
2022/11/26 10:47:30;;;;;;;1999.90;999.90;;;12.70;99.90;;;;;;5050915;28;20087;-78
2022/11/26 10:50:22;;;;;;;1999.90;999.90;;;12.70;99.90;;;;;;5051736;28;20048;-78
2022/11/26 10:52:48;;;;;;;1999.90;999.90;;;12.70;99.90;;;;;;5099964;28;20062;-79
2022/11/26 10:55:26;;;;;;;1999.90;999.90;;;12.70;99.90;;;;;;5114165;28;20062;-79
2022/11/26 10:58:13;;;;;;;1999.90;999.90;;;12.40;99.90;;;;;;5115070;28;20038;-78
2022/11/26 11:00:44;;;;;;;1999.90;999.90;;;12.40;99.90;;;;;;5097105;28;20048;-78
2022/11/26 11:03:26;;;;;;;1999.90;999.90;;;12.50;99.90;;;;;;5096610;28;20052;-78
2022/11/26 11:06:10;;;;;;;1999.90;999.90;;;12.70;99.90;;;;;;5113822;28;20454;-78
2022/11/26 11:08:36;;;;;;;1999.90;999.90;;;11.10;99.90;;;;;;5096830;28;20054;-78
2022/11/26 11:11:03;;;;;;;1999.90;999.90;;;12.60;99.90;;;;;;5114593;28;20047;-80
2022/11/26 11:13:43;;;;;;;1999.90;999.90;;;12.70;99.90;;;;;;5114388;28;20044;-80
2022/11/26 11:16:11;;;;;;;1999.90;999.90;;;12.60;99.90;;;;;;5113167;28;20091;-77
2022/11/26 11:18:37;;;;;;;;;;;12.80;99.90;;;;;;5113605;28;20135;-78
2022/11/26 11:21:04;;;;;;;1999.90;999.90;;;13.40;99.90;;;;;;5113847;28;19973;-79
2022/11/26 11:23:33;;;;;;;1999.90;999.90;;;12.70;99.90;;;;;;5112826;28;20083;-78
2022/11/26 11:26:15;;;;;;;1999.90;999.90;;;12.70;99.90;;;;;;5113302;28;20057;-77
2022/11/26 11:28:54;;;;;;;1999.90;999.90;;;12.40;99.90;;;;;;5114509;28;20480;-77
2022/11/26 11:31:23;;;;;;;1999.90;999.90;;;12.80;99.90;;;;;;5114165;28;20051;-77
2022/11/26 11:33:50;;;;;;;1999.90;999.90;;;12.60;99.90;;;;;;5114686;28;20126;-78
2022/11/26 11:36:27;;;;;;;1999.90;999.90;;;12.70;99.90;;;;;;5113670;28;20471;-78
2022/11/26 11:38:58;;;;;;;1999.90;999.90;;;12.60;99.90;;;;;;5114444;28;20055;-77
2022/11/26 11:41:46;;;;;;;1999.90;999.90;;;12.40;99.90;;;;;;5114470;28;20043;-77
2022/11/26 11:44:14;;;;;;;1999.90;999.90;;;12.50;99.90;;;;;;5096082;28;20051;-77
2022/11/26 11:47:11;;;;;;;1999.90;999.90;;;12.50;99.90;;;;;;5114109;28;20040;-78
2022/11/26 11:50:17;;;;;;;1999.90;999.90;;;12.80;99.90;;;;;;5114081;28;20060;-78
2022/11/26 11:52:45;;;;;;;1999.90;999.90;;;12.60;99.90;;;;;;5113504;28;20135;-77
2022/11/26 11:55:32;;;;;;;1999.90;999.90;;;12.50;99.90;;;;;;5114507;28;20039;-77
2022/11/26 11:58:16;;;;;;;1999.90;999.90;;;12.50;99.90;;;;;;5113579;28;20471;-77
2022/11/26 12:01:06;;;;;;;1999.90;999.90;;;12.80;77.90;;;;;;5114407;28;20484;-77
2022/11/26 12:03:52;;;;;;;1999.90;999.90;;;12.50;51.40;;;;;;5113654;28;20109;-78
2022/11/26 12:06:50;;;;;;;1999.90;999.90;;;12.70;7.80;;;;;;5064331;28;20063;-77
2022/11/26 12:09:31;;;;;;;1999.90;999.90;;;12.50;1.00;;;;;;5114045;28;20140;-86
2022/11/26 12:12:21;;;;;;;1999.90;999.90;;;12.60;1.00;;;;;;5114046;28;20153;-80
2022/11/26 12:14:56;;;;;;;1607.78;570.13;;;12.80;1.00;;;;;;5114066;28;20043;-77
2022/11/26 12:17:57;;;;;;;1999.90;999.90;;;12.60;99.90;;;;;;5113102;28;20051;-79
2022/11/26 12:20:39;;;;;;;1408.10;555.60;;;12.80;99.90;;;;;;5113159;28;20403;-77
2022/11/26 12:23:39;;;;;;;1999.90;999.90;;;12.50;99.90;;;;;;5113686;28;20492;-77